sensor_id;sensor_type;location;lat;lon;timestamp;temperature;humidity
26107;DHT22;13866;50.748;12.630;2024-02-26T00:00:34;0.70;1.00
26107;DHT22;13866;50.748;12.630;2024-02-26T00:03:00;0.70;99.90
26107;DHT22;13866;50.748;12.630;2024-02-26T00:05:26;0.50;99.90
26107;DHT22;13866;50.748;12.630;2024-02-26T00:07:51;0.30;99.90
26107;DHT22;13866;50.748;12.630;2024-02-26T00:10:17;0.30;1.00
26107;DHT22;13866;50.748;12.630;2024-02-26T00:12:42;0.40;99.90
26107;DHT22;13866;50.748;12.630;2024-02-26T00:15:08;0.40;1.00
26107;DHT22;13866;50.748;12.630;2024-02-26T00:17:34;0.40;99.90
26107;DHT22;13866;50.748;12.630;2024-02-26T00:20:00;0.30;99.90
26107;DHT22;13866;50.748;12.630;2024-02-26T00:22:26;0.30;1.00
26107;DHT22;13866;50.748;12.630;2024-02-26T00:24:51;0.40;99.90
26107;DHT22;13866;50.748;12.630;2024-02-26T00:27:17;0.40;1.00
26107;DHT22;13866;50.748;12.630;2024-02-26T00:29:43;0.40;1.00
26107;DHT22;13866;50.748;12.630;2024-02-26T00:32:08;0.30;99.90
26107;DHT22;13866;50.748;12.630;2024-02-26T00:34:33;0.30;99.90
26107;DHT22;13866;50.748;12.630;2024-02-26T00:36:59;0.30;1.00
26107;DHT22;13866;50.748;12.630;2024-02-26T00:39:24;0.30;1.00
26107;DHT22;13866;50.748;12.630;2024-02-26T00:41:50;0.20;1.00
26107;DHT22;13866;50.748;12.630;2024-02-26T00:44:17;0.20;1.00
26107;DHT22;13866;50.748;12.630;2024-02-26T00:46:42;0.10;1.00
26107;DHT22;13866;50.748;12.630;2024-02-26T00:49:08;0.10;1.00
26107;DHT22;13866;50.748;12.630;2024-02-26T00:51:33;0.10;1.00
26107;DHT22;13866;50.748;12.630;2024-02-26T00:53:59;0.10;54.40
26107;DHT22;13866;50.748;12.630;2024-02-26T00:56:24;0.00;99.90
26107;DHT22;13866;50.748;12.630;2024-02-26T00:58:50;0.00;1.00
26107;DHT22;13866;50.748;12.630;2024-02-26T01:01:16;0.00;99.90
26107;DHT22;13866;50.748;12.630;2024-02-26T01:03:42;0.00;45.20
26107;DHT22;13866;50.748;12.630;2024-02-26T01:06:07;0.00;52.90
26107;DHT22;13866;50.748;12.630;2024-02-26T01:08:33;0.00;99.90
26107;DHT22;13866;50.748;12.630;2024-02-26T01:10:58;0.00;1.00
26107;DHT22;13866;50.748;12.630;2024-02-26T01:13:24;0.00;1.00
26107;DHT22;13866;50.748;12.630;2024-02-26T01:15:49;0.00;1.00
26107;DHT22;13866;50.748;12.630;2024-02-26T01:18:14;-0.10;1.00
26107;DHT22;13866;50.748;12.630;2024-02-26T01:20:40;-0.10;1.00
26107;DHT22;13866;50.748;12.630;2024-02-26T01:23:05;-0.10;99.90
26107;DHT22;13866;50.748;12.630;2024-02-26T01:25:31;-0.10;1.00
26107;DHT22;13866;50.748;12.630;2024-02-26T01:27:57;-0.10;99.90
26107;DHT22;13866;50.748;12.630;2024-02-26T01:30:22;-0.20;1.00
26107;DHT22;13866;50.748;12.630;2024-02-26T01:32:47;-0.30;1.00
26107;DHT22;13866;50.748;12.630;2024-02-26T01:35:13;-0.40;1.00
26107;DHT22;13866;50.748;12.630;2024-02-26T01:37:39;-0.40;14.20
26107;DHT22;13866;50.748;12.630;2024-02-26T01:40:05;-0.40;99.90
26107;DHT22;13866;50.748;12.630;2024-02-26T01:42:32;-0.30;1.00
26107;DHT22;13866;50.748;12.630;2024-02-26T01:44:58;-0.30;1.00
26107;DHT22;13866;50.748;12.630;2024-02-26T01:47:24;-0.40;1.00
26107;DHT22;13866;50.748;12.630;2024-02-26T01:49:50;-0.30;1.00
26107;DHT22;13866;50.748;12.630;2024-02-26T01:52:15;-0.20;99.90
26107;DHT22;13866;50.748;12.630;2024-02-26T01:54:42;-0.20;99.90
26107;DHT22;13866;50.748;12.630;2024-02-26T01:57:09;-0.30;99.90
26107;DHT22;13866;50.748;12.630;2024-02-26T01:59:36;-0.30;99.90
26107;DHT22;13866;50.748;12.630;2024-02-26T02:02:03;-0.30;99.90
26107;DHT22;13866;50.748;12.630;2024-02-26T02:04:30;-0.40;99.90
26107;DHT22;13866;50.748;12.630;2024-02-26T02:06:57;-0.40;99.90
26107;DHT22;13866;50.748;12.630;2024-02-26T02:09:23;-0.40;1.00
26107;DHT22;13866;50.748;12.630;2024-02-26T02:11:49;-0.40;99.90
26107;DHT22;13866;50.748;12.630;2024-02-26T02:14:15;-0.40;78.80
26107;DHT22;13866;50.748;12.630;2024-02-26T02:16:40;-0.50;1.00
26107;DHT22;13866;50.748;12.630;2024-02-26T02:19:06;-0.50;99.90
26107;DHT22;13866;50.748;12.630;2024-02-26T02:21:31;-0.40;1.00
26107;DHT22;13866;50.748;12.630;2024-02-26T02:23:57;-0.40;1.00
26107;DHT22;13866;50.748;12.630;2024-02-26T02:26:22;-0.40;1.00
26107;DHT22;13866;50.748;12.630;2024-02-26T02:28:48;-0.40;99.90
26107;DHT22;13866;50.748;12.630;2024-02-26T02:31:15;-0.40;99.90
26107;DHT22;13866;50.748;12.630;2024-02-26T02:33:41;-0.40;99.90
26107;DHT22;13866;50.748;12.630;2024-02-26T02:36:06;-0.40;1.00
26107;DHT22;13866;50.748;12.630;2024-02-26T02:38:38;-0.40;1.00
26107;DHT22;13866;50.748;12.630;2024-02-26T02:41:13;-0.40;99.90
26107;DHT22;13866;50.748;12.630;2024-02-26T02:43:38;-0.40;1.00
26107;DHT22;13866;50.748;12.630;2024-02-26T02:46:04;-0.40;1.00
26107;DHT22;13866;50.748;12.630;2024-02-26T02:48:29;-0.40;1.00
26107;DHT22;13866;50.748;12.630;2024-02-26T02:50:55;-0.50;99.90
26107;DHT22;13866;50.748;12.630;2024-02-26T02:53:20;-0.60;99.90
26107;DHT22;13866;50.748;12.630;2024-02-26T02:55:46;-0.60;79.90
26107;DHT22;13866;50.748;12.630;2024-02-26T02:58:11;-0.60;99.90
26107;DHT22;13866;50.748;12.630;2024-02-26T03:00:37;-0.50;1.00
26107;DHT22;13866;50.748;12.630;2024-02-26T03:03:02;-0.40;1.00
26107;DHT22;13866;50.748;12.630;2024-02-26T03:05:29;-0.50;1.00
26107;DHT22;13866;50.748;12.630;2024-02-26T03:07:54;-0.50;1.00
26107;DHT22;13866;50.748;12.630;2024-02-26T03:10:20;-0.50;15.60
26107;DHT22;13866;50.748;12.630;2024-02-26T03:12:45;-0.50;47.40
26107;DHT22;13866;50.748;12.630;2024-02-26T03:15:11;-0.50;99.90
26107;DHT22;13866;50.748;12.630;2024-02-26T03:17:36;-0.50;38.50
26107;DHT22;13866;50.748;12.630;2024-02-26T03:20:02;-0.50;1.00
26107;DHT22;13866;50.748;12.630;2024-02-26T03:22:30;-0.70;1.00
26107;DHT22;13866;50.748;12.630;2024-02-26T03:24:57;-0.60;99.90
26107;DHT22;13866;50.748;12.630;2024-02-26T03:27:22;-0.70;99.90
26107;DHT22;13866;50.748;12.630;2024-02-26T03:29:48;-0.60;99.90
26107;DHT22;13866;50.748;12.630;2024-02-26T03:32:14;-0.60;99.90
26107;DHT22;13866;50.748;12.630;2024-02-26T03:34:39;-0.60;99.90
26107;DHT22;13866;50.748;12.630;2024-02-26T03:37:05;-0.60;99.90
26107;DHT22;13866;50.748;12.630;2024-02-26T03:39:31;-0.60;99.90
26107;DHT22;13866;50.748;12.630;2024-02-26T03:41:57;-0.60;99.90
26107;DHT22;13866;50.748;12.630;2024-02-26T03:44:22;-0.60;99.90
26107;DHT22;13866;50.748;12.630;2024-02-26T03:46:48;-0.60;99.90
26107;DHT22;13866;50.748;12.630;2024-02-26T03:49:13;-0.70;99.90
26107;DHT22;13866;50.748;12.630;2024-02-26T03:51:39;-0.70;99.90
26107;DHT22;13866;50.748;12.630;2024-02-26T03:54:04;-0.90;99.90
26107;DHT22;13866;50.748;12.630;2024-02-26T03:56:30;-0.90;99.90
26107;DHT22;13866;50.748;12.630;2024-02-26T03:58:55;-0.90;99.90
26107;DHT22;13866;50.748;12.630;2024-02-26T04:01:21;-0.80;99.90
26107;DHT22;13866;50.748;12.630;2024-02-26T04:03:46;-0.70;1.00
26107;DHT22;13866;50.748;12.630;2024-02-26T04:06:12;-0.60;1.00
26107;DHT22;13866;50.748;12.630;2024-02-26T04:08:40;-0.50;1.00
26107;DHT22;13866;50.748;12.630;2024-02-26T04:11:06;-0.40;1.00
26107;DHT22;13866;50.748;12.630;2024-02-26T04:13:36;-0.40;1.00
26107;DHT22;13866;50.748;12.630;2024-02-26T04:16:04;-0.40;1.00
26107;DHT22;13866;50.748;12.630;2024-02-26T04:18:30;-0.40;1.00
26107;DHT22;13866;50.748;12.630;2024-02-26T04:20:55;-0.50;1.00
26107;DHT22;13866;50.748;12.630;2024-02-26T04:23:22;-0.50;1.00
26107;DHT22;13866;50.748;12.630;2024-02-26T04:25:47;-0.50;1.00
26107;DHT22;13866;50.748;12.630;2024-02-26T04:28:13;-0.60;1.00
26107;DHT22;13866;50.748;12.630;2024-02-26T04:30:39;-0.50;1.00
26107;DHT22;13866;50.748;12.630;2024-02-26T04:33:04;-0.50;1.00
26107;DHT22;13866;50.748;12.630;2024-02-26T04:35:30;-0.40;1.00
26107;DHT22;13866;50.748;12.630;2024-02-26T04:37:56;-0.50;1.00
26107;DHT22;13866;50.748;12.630;2024-02-26T04:40:21;-0.50;1.00
26107;DHT22;13866;50.748;12.630;2024-02-26T04:42:47;-0.50;1.00
26107;DHT22;13866;50.748;12.630;2024-02-26T04:45:12;-0.60;1.00
26107;DHT22;13866;50.748;12.630;2024-02-26T04:47:37;-0.60;1.00
26107;DHT22;13866;50.748;12.630;2024-02-26T04:50:03;-0.60;1.00
26107;DHT22;13866;50.748;12.630;2024-02-26T04:52:29;-0.60;1.00
26107;DHT22;13866;50.748;12.630;2024-02-26T04:54:54;-0.70;1.00
26107;DHT22;13866;50.748;12.630;2024-02-26T04:57:21;-0.70;99.90
26107;DHT22;13866;50.748;12.630;2024-02-26T04:59:46;-0.70;99.90
26107;DHT22;13866;50.748;12.630;2024-02-26T05:02:12;-0.70;99.90
26107;DHT22;13866;50.748;12.630;2024-02-26T05:04:38;-0.70;1.00
26107;DHT22;13866;50.748;12.630;2024-02-26T05:07:04;-0.70;1.00
26107;DHT22;13866;50.748;12.630;2024-02-26T05:09:29;-0.60;1.00
26107;DHT22;13866;50.748;12.630;2024-02-26T05:11:55;-0.60;1.00
26107;DHT22;13866;50.748;12.630;2024-02-26T05:14:20;-0.70;1.00
26107;DHT22;13866;50.748;12.630;2024-02-26T05:16:47;-0.70;1.00
26107;DHT22;13866;50.748;12.630;2024-02-26T05:19:12;-0.70;1.00
26107;DHT22;13866;50.748;12.630;2024-02-26T05:21:37;-0.70;1.00
26107;DHT22;13866;50.748;12.630;2024-02-26T05:24:03;-0.70;1.00
26107;DHT22;13866;50.748;12.630;2024-02-26T05:26:29;-0.70;1.00
26107;DHT22;13866;50.748;12.630;2024-02-26T05:28:54;-0.60;1.00
26107;DHT22;13866;50.748;12.630;2024-02-26T05:31:25;-0.60;1.00
26107;DHT22;13866;50.748;12.630;2024-02-26T05:33:50;-0.70;1.00
26107;DHT22;13866;50.748;12.630;2024-02-26T05:36:23;-0.60;1.00
26107;DHT22;13866;50.748;12.630;2024-02-26T05:38:49;-0.60;1.00
26107;DHT22;13866;50.748;12.630;2024-02-26T05:41:17;-0.60;1.00
26107;DHT22;13866;50.748;12.630;2024-02-26T05:43:51;-0.60;1.00
26107;DHT22;13866;50.748;12.630;2024-02-26T05:46:18;-0.60;1.00
26107;DHT22;13866;50.748;12.630;2024-02-26T05:48:51;-0.50;1.00
26107;DHT22;13866;50.748;12.630;2024-02-26T05:51:16;-0.50;1.00
26107;DHT22;13866;50.748;12.630;2024-02-26T05:53:42;-0.50;1.00
26107;DHT22;13866;50.748;12.630;2024-02-26T05:56:07;-0.50;1.00
26107;DHT22;13866;50.748;12.630;2024-02-26T05:58:33;-0.40;1.00
26107;DHT22;13866;50.748;12.630;2024-02-26T06:00:59;-0.30;1.00
26107;DHT22;13866;50.748;12.630;2024-02-26T06:03:25;-0.30;1.00
26107;DHT22;13866;50.748;12.630;2024-02-26T06:05:51;-0.40;1.00
26107;DHT22;13866;50.748;12.630;2024-02-26T06:08:16;-0.40;1.00
26107;DHT22;13866;50.748;12.630;2024-02-26T06:10:41;-0.50;1.00
26107;DHT22;13866;50.748;12.630;2024-02-26T06:13:07;-0.50;1.00
26107;DHT22;13866;50.748;12.630;2024-02-26T06:15:32;-0.50;1.00
26107;DHT22;13866;50.748;12.630;2024-02-26T06:17:58;-0.50;1.00
26107;DHT22;13866;50.748;12.630;2024-02-26T06:20:23;-0.50;1.00
26107;DHT22;13866;50.748;12.630;2024-02-26T06:22:49;-0.50;1.00
26107;DHT22;13866;50.748;12.630;2024-02-26T06:25:14;-0.40;1.00
26107;DHT22;13866;50.748;12.630;2024-02-26T06:27:40;-0.40;1.00
26107;DHT22;13866;50.748;12.630;2024-02-26T06:30:06;-0.40;1.00
26107;DHT22;13866;50.748;12.630;2024-02-26T06:32:31;-0.30;1.00
26107;DHT22;13866;50.748;12.630;2024-02-26T06:34:57;-0.30;1.00
26107;DHT22;13866;50.748;12.630;2024-02-26T06:37:22;-0.30;1.00
26107;DHT22;13866;50.748;12.630;2024-02-26T06:39:48;-0.20;1.00
26107;DHT22;13866;50.748;12.630;2024-02-26T06:42:13;-0.20;1.00
26107;DHT22;13866;50.748;12.630;2024-02-26T06:44:39;-0.10;1.00
26107;DHT22;13866;50.748;12.630;2024-02-26T06:47:05;-0.10;1.00
26107;DHT22;13866;50.748;12.630;2024-02-26T06:49:31;-0.10;1.00
26107;DHT22;13866;50.748;12.630;2024-02-26T06:51:56;0.00;1.00
26107;DHT22;13866;50.748;12.630;2024-02-26T06:54:22;0.10;1.00
26107;DHT22;13866;50.748;12.630;2024-02-26T06:56:47;0.30;1.00
26107;DHT22;13866;50.748;12.630;2024-02-26T06:59:13;0.30;1.00
26107;DHT22;13866;50.748;12.630;2024-02-26T07:01:42;0.30;1.00
26107;DHT22;13866;50.748;12.630;2024-02-26T07:04:07;0.40;1.00
26107;DHT22;13866;50.748;12.630;2024-02-26T07:06:33;0.60;1.00
26107;DHT22;13866;50.748;12.630;2024-02-26T07:08:58;0.80;1.00
26107;DHT22;13866;50.748;12.630;2024-02-26T07:11:24;0.90;1.00
26107;DHT22;13866;50.748;12.630;2024-02-26T07:13:49;1.10;1.00
26107;DHT22;13866;50.748;12.630;2024-02-26T07:16:15;1.20;1.00
26107;DHT22;13866;50.748;12.630;2024-02-26T07:18:41;1.40;1.00
26107;DHT22;13866;50.748;12.630;2024-02-26T07:21:08;1.50;1.00
26107;DHT22;13866;50.748;12.630;2024-02-26T07:23:34;1.60;1.00
26107;DHT22;13866;50.748;12.630;2024-02-26T07:25:59;1.60;1.00
26107;DHT22;13866;50.748;12.630;2024-02-26T07:28:25;1.70;1.00
26107;DHT22;13866;50.748;12.630;2024-02-26T07:30:51;1.80;1.00
26107;DHT22;13866;50.748;12.630;2024-02-26T07:33:17;1.90;1.00
26107;DHT22;13866;50.748;12.630;2024-02-26T07:35:48;1.90;1.00
26107;DHT22;13866;50.748;12.630;2024-02-26T07:38:14;2.00;1.00
26107;DHT22;13866;50.748;12.630;2024-02-26T07:40:50;2.10;1.00
26107;DHT22;13866;50.748;12.630;2024-02-26T07:43:16;2.20;1.00
26107;DHT22;13866;50.748;12.630;2024-02-26T07:45:41;2.30;1.00
26107;DHT22;13866;50.748;12.630;2024-02-26T07:48:07;2.30;1.00
26107;DHT22;13866;50.748;12.630;2024-02-26T07:50:32;2.40;1.00
26107;DHT22;13866;50.748;12.630;2024-02-26T07:52:58;2.50;1.00
26107;DHT22;13866;50.748;12.630;2024-02-26T07:55:23;2.50;1.00
26107;DHT22;13866;50.748;12.630;2024-02-26T07:57:49;2.60;1.00
26107;DHT22;13866;50.748;12.630;2024-02-26T08:00:15;2.70;1.00
26107;DHT22;13866;50.748;12.630;2024-02-26T08:02:42;2.80;1.00
26107;DHT22;13866;50.748;12.630;2024-02-26T08:05:09;2.90;1.00
26107;DHT22;13866;50.748;12.630;2024-02-26T08:07:34;3.00;1.00
26107;DHT22;13866;50.748;12.630;2024-02-26T08:10:00;3.10;1.00
26107;DHT22;13866;50.748;12.630;2024-02-26T08:12:25;3.20;1.00
26107;DHT22;13866;50.748;12.630;2024-02-26T08:14:51;3.40;1.00
26107;DHT22;13866;50.748;12.630;2024-02-26T08:17:16;3.60;1.00
26107;DHT22;13866;50.748;12.630;2024-02-26T08:19:42;3.80;1.00
26107;DHT22;13866;50.748;12.630;2024-02-26T08:22:07;4.10;1.00
26107;DHT22;13866;50.748;12.630;2024-02-26T08:24:35;4.30;1.00
26107;DHT22;13866;50.748;12.630;2024-02-26T08:27:00;4.50;1.00
26107;DHT22;13866;50.748;12.630;2024-02-26T08:29:25;4.70;99.90
26107;DHT22;13866;50.748;12.630;2024-02-26T08:31:51;4.90;99.90
26107;DHT22;13866;50.748;12.630;2024-02-26T08:34:16;4.90;99.90
26107;DHT22;13866;50.748;12.630;2024-02-26T08:36:42;5.00;99.90
26107;DHT22;13866;50.748;12.630;2024-02-26T08:39:08;5.00;99.90
26107;DHT22;13866;50.748;12.630;2024-02-26T08:41:34;5.00;99.90
26107;DHT22;13866;50.748;12.630;2024-02-26T08:43:59;5.10;99.90
26107;DHT22;13866;50.748;12.630;2024-02-26T08:46:25;5.10;1.00
26107;DHT22;13866;50.748;12.630;2024-02-26T08:48:50;5.20;1.00
26107;DHT22;13866;50.748;12.630;2024-02-26T08:51:16;5.40;99.90
26107;DHT22;13866;50.748;12.630;2024-02-26T08:53:42;5.60;1.00
26107;DHT22;13866;50.748;12.630;2024-02-26T08:56:07;5.80;99.90
26107;DHT22;13866;50.748;12.630;2024-02-26T08:58:33;6.10;1.00
26107;DHT22;13866;50.748;12.630;2024-02-26T09:00:59;6.30;99.90
26107;DHT22;13866;50.748;12.630;2024-02-26T09:03:24;6.40;1.00
26107;DHT22;13866;50.748;12.630;2024-02-26T09:05:50;6.50;99.90
26107;DHT22;13866;50.748;12.630;2024-02-26T09:08:16;6.50;99.90
26107;DHT22;13866;50.748;12.630;2024-02-26T09:10:42;6.60;99.90
26107;DHT22;13866;50.748;12.630;2024-02-26T09:13:07;6.80;99.90
26107;DHT22;13866;50.748;12.630;2024-02-26T09:15:33;6.90;99.90
26107;DHT22;13866;50.748;12.630;2024-02-26T09:17:58;7.30;99.90
26107;DHT22;13866;50.748;12.630;2024-02-26T09:20:24;7.50;99.90
26107;DHT22;13866;50.748;12.630;2024-02-26T09:22:50;7.60;99.90
26107;DHT22;13866;50.748;12.630;2024-02-26T09:25:16;7.60;99.90
26107;DHT22;13866;50.748;12.630;2024-02-26T09:27:42;7.70;99.90
26107;DHT22;13866;50.748;12.630;2024-02-26T09:30:10;7.80;99.90
26107;DHT22;13866;50.748;12.630;2024-02-26T09:32:35;7.80;99.90
26107;DHT22;13866;50.748;12.630;2024-02-26T09:35:01;7.90;99.90
26107;DHT22;13866;50.748;12.630;2024-02-26T09:37:27;7.90;99.90
26107;DHT22;13866;50.748;12.630;2024-02-26T09:39:52;7.90;99.90
26107;DHT22;13866;50.748;12.630;2024-02-26T09:42:18;8.00;99.90
26107;DHT22;13866;50.748;12.630;2024-02-26T09:44:45;8.20;99.90
26107;DHT22;13866;50.748;12.630;2024-02-26T09:47:11;8.30;95.80
26107;DHT22;13866;50.748;12.630;2024-02-26T09:49:40;8.40;83.30
26107;DHT22;13866;50.748;12.630;2024-02-26T09:52:12;8.50;94.40
26107;DHT22;13866;50.748;12.630;2024-02-26T09:54:41;8.60;91.00
26107;DHT22;13866;50.748;12.630;2024-02-26T09:57:09;8.80;86.90
26107;DHT22;13866;50.748;12.630;2024-02-26T09:59:41;8.70;43.90
26107;DHT22;13866;50.748;12.630;2024-02-26T10:02:13;8.70;54.30
26107;DHT22;13866;50.748;12.630;2024-02-26T10:04:42;8.60;40.90
26107;DHT22;13866;50.748;12.630;2024-02-26T10:07:12;8.50;35.80
26107;DHT22;13866;50.748;12.630;2024-02-26T10:09:38;8.50;43.90
26107;DHT22;13866;50.748;12.630;2024-02-26T10:12:05;8.50;52.80
26107;DHT22;13866;50.748;12.630;2024-02-26T10:17:49;8.60;46.90
26107;DHT22;13866;50.748;12.630;2024-02-26T10:21:00;8.60;65.80
26107;DHT22;13866;50.748;12.630;2024-02-26T10:23:39;8.70;63.90
26107;DHT22;13866;50.748;12.630;2024-02-26T10:26:04;8.70;70.50
26107;DHT22;13866;50.748;12.630;2024-02-26T10:28:30;8.80;75.10
26107;DHT22;13866;50.748;12.630;2024-02-26T10:30:56;8.90;96.90
26107;DHT22;13866;50.748;12.630;2024-02-26T10:33:22;8.90;87.30
26107;DHT22;13866;50.748;12.630;2024-02-26T10:35:48;9.10;98.50
26107;DHT22;13866;50.748;12.630;2024-02-26T10:38:13;9.40;90.70
26107;DHT22;13866;50.748;12.630;2024-02-26T10:40:42;9.50;62.50
26107;DHT22;13866;50.748;12.630;2024-02-26T10:43:07;9.70;80.70
26107;DHT22;13866;50.748;12.630;2024-02-26T10:45:33;9.50;48.30
26107;DHT22;13866;50.748;12.630;2024-02-26T10:47:58;9.40;53.00
26107;DHT22;13866;50.748;12.630;2024-02-26T10:50:25;9.40;58.50
26107;DHT22;13866;50.748;12.630;2024-02-26T10:52:51;9.50;99.90
26107;DHT22;13866;50.748;12.630;2024-02-26T10:55:17;9.60;71.60
26107;DHT22;13866;50.748;12.630;2024-02-26T10:57:57;9.80;73.50
26107;DHT22;13866;50.748;12.630;2024-02-26T11:00:54;9.80;38.10
26107;DHT22;13866;50.748;12.630;2024-02-26T11:03:47;9.70;40.00
26107;DHT22;13866;50.748;12.630;2024-02-26T11:06:39;10.00;42.40
26107;DHT22;13866;50.748;12.630;2024-02-26T11:09:14;10.10;35.50
26107;DHT22;13866;50.748;12.630;2024-02-26T11:12:14;10.20;35.10
26107;DHT22;13866;50.748;12.630;2024-02-26T11:15:25;10.20;25.90
26107;DHT22;13866;50.748;12.630;2024-02-26T11:21:29;10.10;18.80
26107;DHT22;13866;50.748;12.630;2024-02-26T11:24:15;9.90;20.70
26107;DHT22;13866;50.748;12.630;2024-02-26T11:26:49;9.90;30.00
26107;DHT22;13866;50.748;12.630;2024-02-26T11:29:19;9.90;34.70
26107;DHT22;13866;50.748;12.630;2024-02-26T11:31:46;9.80;32.90
26107;DHT22;13866;50.748;12.630;2024-02-26T11:34:12;10.00;32.90
26107;DHT22;13866;50.748;12.630;2024-02-26T11:36:38;10.00;34.80
26107;DHT22;13866;50.748;12.630;2024-02-26T11:39:05;10.00;30.00
26107;DHT22;13866;50.748;12.630;2024-02-26T11:41:32;10.10;35.70
26107;DHT22;13866;50.748;12.630;2024-02-26T11:43:59;10.20;37.90
26107;DHT22;13866;50.748;12.630;2024-02-26T11:46:32;10.30;27.90
26107;DHT22;13866;50.748;12.630;2024-02-26T11:49:01;10.50;27.60
26107;DHT22;13866;50.748;12.630;2024-02-26T11:51:28;10.50;19.60
26107;DHT22;13866;50.748;12.630;2024-02-26T11:53:57;10.50;6.20
26107;DHT22;13866;50.748;12.630;2024-02-26T11:56:24;10.60;1.00
26107;DHT22;13866;50.748;12.630;2024-02-26T11:59:01;10.60;1.00
26107;DHT22;13866;50.748;12.630;2024-02-26T12:01:39;10.70;1.00
26107;DHT22;13866;50.748;12.630;2024-02-26T12:04:07;10.70;1.00
26107;DHT22;13866;50.748;12.630;2024-02-26T12:06:52;10.80;1.00
26107;DHT22;13866;50.748;12.630;2024-02-26T12:09:40;10.90;1.00
26107;DHT22;13866;50.748;12.630;2024-02-26T12:12:10;11.00;1.00
26107;DHT22;13866;50.748;12.630;2024-02-26T12:14:40;11.00;1.00
26107;DHT22;13866;50.748;12.630;2024-02-26T12:17:07;11.10;1.00
26107;DHT22;13866;50.748;12.630;2024-02-26T12:19:35;11.10;1.00
26107;DHT22;13866;50.748;12.630;2024-02-26T12:22:01;11.10;1.00
26107;DHT22;13866;50.748;12.630;2024-02-26T12:24:26;11.20;1.00
26107;DHT22;13866;50.748;12.630;2024-02-26T12:26:52;11.30;1.00
26107;DHT22;13866;50.748;12.630;2024-02-26T12:29:17;11.30;1.00
26107;DHT22;13866;50.748;12.630;2024-02-26T12:31:43;11.30;1.00
26107;DHT22;13866;50.748;12.630;2024-02-26T12:34:09;11.20;1.00
26107;DHT22;13866;50.748;12.630;2024-02-26T12:36:35;11.20;1.00
26107;DHT22;13866;50.748;12.630;2024-02-26T12:39:02;11.20;1.00
26107;DHT22;13866;50.748;12.630;2024-02-26T12:41:28;11.00;1.00
26107;DHT22;13866;50.748;12.630;2024-02-26T12:43:55;10.90;1.00
26107;DHT22;13866;50.748;12.630;2024-02-26T12:46:21;10.90;1.00
26107;DHT22;13866;50.748;12.630;2024-02-26T12:48:47;11.00;1.00
26107;DHT22;13866;50.748;12.630;2024-02-26T12:51:14;10.90;1.00
26107;DHT22;13866;50.748;12.630;2024-02-26T12:53:41;10.90;1.00
26107;DHT22;13866;50.748;12.630;2024-02-26T12:56:08;11.00;1.00
26107;DHT22;13866;50.748;12.630;2024-02-26T12:58:35;10.90;1.00
26107;DHT22;13866;50.748;12.630;2024-02-26T13:01:01;10.80;1.00
26107;DHT22;13866;50.748;12.630;2024-02-26T13:03:28;10.60;1.00
26107;DHT22;13866;50.748;12.630;2024-02-26T13:05:53;10.70;1.00
26107;DHT22;13866;50.748;12.630;2024-02-26T13:08:20;10.50;1.00
26107;DHT22;13866;50.748;12.630;2024-02-26T13:10:46;10.50;1.00
26107;DHT22;13866;50.748;12.630;2024-02-26T13:13:14;10.50;1.00
26107;DHT22;13866;50.748;12.630;2024-02-26T13:15:40;10.60;1.00
26107;DHT22;13866;50.748;12.630;2024-02-26T13:18:10;10.70;1.00
26107;DHT22;13866;50.748;12.630;2024-02-26T13:20:35;10.80;1.00
26107;DHT22;13866;50.748;12.630;2024-02-26T13:23:06;10.80;1.00
26107;DHT22;13866;50.748;12.630;2024-02-26T13:25:32;10.80;1.00
26107;DHT22;13866;50.748;12.630;2024-02-26T13:28:09;11.00;1.00
26107;DHT22;13866;50.748;12.630;2024-02-26T13:30:35;10.80;1.00
26107;DHT22;13866;50.748;12.630;2024-02-26T13:33:11;10.70;1.00
26107;DHT22;13866;50.748;12.630;2024-02-26T13:35:37;10.70;1.00
26107;DHT22;13866;50.748;12.630;2024-02-26T13:38:07;10.80;1.00
26107;DHT22;13866;50.748;12.630;2024-02-26T13:40:32;10.90;1.00
26107;DHT22;13866;50.748;12.630;2024-02-26T13:42:59;10.90;1.00
26107;DHT22;13866;50.748;12.630;2024-02-26T13:45:24;11.00;1.00
26107;DHT22;13866;50.748;12.630;2024-02-26T13:47:50;10.90;1.00
26107;DHT22;13866;50.748;12.630;2024-02-26T13:50:15;10.80;1.00
26107;DHT22;13866;50.748;12.630;2024-02-26T13:52:41;10.60;1.00
26107;DHT22;13866;50.748;12.630;2024-02-26T13:55:07;10.60;1.00
26107;DHT22;13866;50.748;12.630;2024-02-26T13:57:33;10.70;1.00
26107;DHT22;13866;50.748;12.630;2024-02-26T13:59:58;10.70;1.00
26107;DHT22;13866;50.748;12.630;2024-02-26T14:02:24;10.80;1.00
26107;DHT22;13866;50.748;12.630;2024-02-26T14:04:49;10.90;1.00
26107;DHT22;13866;50.748;12.630;2024-02-26T14:07:15;10.90;1.00
26107;DHT22;13866;50.748;12.630;2024-02-26T14:09:42;10.80;1.00
26107;DHT22;13866;50.748;12.630;2024-02-26T14:12:08;10.90;1.00
26107;DHT22;13866;50.748;12.630;2024-02-26T14:14:33;11.00;1.00
26107;DHT22;13866;50.748;12.630;2024-02-26T14:17:01;10.90;1.00
26107;DHT22;13866;50.748;12.630;2024-02-26T14:19:28;10.90;1.00
26107;DHT22;13866;50.748;12.630;2024-02-26T14:21:54;10.50;1.00
26107;DHT22;13866;50.748;12.630;2024-02-26T14:24:19;10.60;1.00
26107;DHT22;13866;50.748;12.630;2024-02-26T14:26:45;10.60;1.00
26107;DHT22;13866;50.748;12.630;2024-02-26T14:29:11;10.50;1.00
26107;DHT22;13866;50.748;12.630;2024-02-26T14:31:36;10.40;1.00
26107;DHT22;13866;50.748;12.630;2024-02-26T14:34:02;10.50;1.00
26107;DHT22;13866;50.748;12.630;2024-02-26T14:36:27;10.60;1.00
26107;DHT22;13866;50.748;12.630;2024-02-26T14:38:54;10.40;1.00
26107;DHT22;13866;50.748;12.630;2024-02-26T14:41:20;10.40;1.00
26107;DHT22;13866;50.748;12.630;2024-02-26T14:43:45;10.40;1.00
26107;DHT22;13866;50.748;12.630;2024-02-26T14:46:11;10.40;1.00
26107;DHT22;13866;50.748;12.630;2024-02-26T14:48:36;10.50;1.00
26107;DHT22;13866;50.748;12.630;2024-02-26T14:51:02;10.50;1.00
26107;DHT22;13866;50.748;12.630;2024-02-26T14:53:27;10.50;1.00
26107;DHT22;13866;50.748;12.630;2024-02-26T14:55:53;10.50;1.00
26107;DHT22;13866;50.748;12.630;2024-02-26T14:58:18;10.50;1.00
26107;DHT22;13866;50.748;12.630;2024-02-26T15:00:44;10.60;1.00
26107;DHT22;13866;50.748;12.630;2024-02-26T15:03:10;10.40;1.00
26107;DHT22;13866;50.748;12.630;2024-02-26T15:05:35;10.50;1.00
26107;DHT22;13866;50.748;12.630;2024-02-26T15:08:01;10.50;1.00
26107;DHT22;13866;50.748;12.630;2024-02-26T15:10:28;10.40;1.00
26107;DHT22;13866;50.748;12.630;2024-02-26T15:12:54;10.20;1.00
26107;DHT22;13866;50.748;12.630;2024-02-26T15:15:23;10.20;1.00
26107;DHT22;13866;50.748;12.630;2024-02-26T15:17:49;10.20;1.00
26107;DHT22;13866;50.748;12.630;2024-02-26T15:20:15;10.10;1.00
26107;DHT22;13866;50.748;12.630;2024-02-26T15:22:41;10.10;1.00
26107;DHT22;13866;50.748;12.630;2024-02-26T15:25:07;10.00;1.00
26107;DHT22;13866;50.748;12.630;2024-02-26T15:27:33;9.90;1.00
26107;DHT22;13866;50.748;12.630;2024-02-26T15:29:59;9.90;1.00
26107;DHT22;13866;50.748;12.630;2024-02-26T15:32:25;9.90;1.00
26107;DHT22;13866;50.748;12.630;2024-02-26T15:34:55;9.90;1.00